Thunder radar more information blitzortung!


Löydät sääaseman tiedot myös:

European Weather Network

Finland Weather Exchange

Weather Underground

AWEKAS



Weather Underground säähistoriasivu

Päivittäin yhteenveto Elokuu 23, 2017 Yksiköt:  Englantilaiset    Metriset   Molemmat
« Edellinen Päivä
Seuraava Päivä »
Päivittäin Viikoittain Kuukausittain Vuosittain Mukautettu
  Korkea: Matala: Keskiarvo:
Lämpötila: TemperatureC °F 9.4 °F 11.2 °F
Kastepiste: DewpointC °F 7.6 °F 9 °F
Kosteus: Humidity % 77 % 86 %
Tuulen nopeus: WindSpeedKMH mph 0.0 mph 0.4 mph
Tuulenpuuska: WindSpeedGustKMH mph - -
Tuuli:- - NW
Ilmanpaine: PressurehPa in 1012.8 in -
Sade: 0.0 in    
Historical Graphs
 
 
Taulukkotiedot Elokuu 23, 2017
Aika Lämpötila Kastepiste Ilmanpaine Tuuli Tuulen nopeus Tuulenpuuska Kosteus Sademäärä (tunneittain)
TemperatureC °F DewpointC °F PressurehPa in Calm     Humidity % HourlyPrecipMM in
00:00 11.4 °F 10.2 °F 1014.8 in NNW 1.6 mph 8.0 mph 92 % 0.0 in
00:15 11.4 °F 10.2 °F 1014.8 in Calm   4.8 mph 92 % 0.0 in
00:30 11.4 °F 10.0 °F 1014.8 in Calm   4.8 mph 91 % 0.0 in
00:45 11.4 °F 10.0 °F 1014.8 in Calm   3.2 mph 91 % 0.0 in
01:00 11.4 °F 10.0 °F 1014.8 in Calm   3.2 mph 91 % 0.0 in
01:15 11.4 °F 10.0 °F 1014.8 in Calm   8.0 mph 91 % 0.0 in
01:30 11.3 °F 9.9 °F 1014.8 in North 1.6 mph 8.0 mph 91 % 0.0 in
01:45 11.3 °F 9.9 °F 1014.8 in Calm   4.8 mph 91 % 0.0 in
02:00 11.3 °F 9.9 °F 1014.8 in Calm   6.4 mph 91 % 0.0 in
02:15 11.3 °F 9.9 °F 1014.8 in North 1.6 mph 4.8 mph 91 % 0.0 in
02:30 11.3 °F 9.9 °F 1014.8 in Calm   3.2 mph 91 % 0.0 in
02:45 11.2 °F 9.6 °F 1014.8 in Calm   3.2 mph 90 % 0.0 in
03:00 11.2 °F 9.6 °F 1014.8 in Calm   1.6 mph 90 % 0.0 in
03:15 11.1 °F 9.7 °F 1014.8 in Calm     91 % 0.0 in
03:45 11.0 °F 9.6 °F 1014.4 in Calm   3.2 mph 91 % 0.0 in
04:00 10.9 °F 9.5 °F 1014.4 in Calm   4.8 mph 91 % 0.0 in
04:15 10.9 °F 9.3 °F 1014.4 in Calm   3.2 mph 90 % 0.0 in
04:30 10.8 °F 9.2 °F 1014.4 in Calm   4.8 mph 90 % 0.0 in
04:45 10.7 °F 9.1 °F 1014.4 in Calm   4.8 mph 90 % 0.0 in
05:00 10.7 °F 9.1 °F 1014.4 in Calm   4.8 mph 90 % 0.0 in
05:15 10.7 °F 9.1 °F 1014.4 in Calm   1.6 mph 90 % 0.0 in
05:30 10.6 °F 9.2 °F 1014.4 in Calm   1.6 mph 91 % 0.0 in
05:45 10.6 °F 9.1 °F 1014.4 in Calm   4.8 mph 91 % 0.0 in
06:00 10.6 °F 9.0 °F 1014.4 in Calm   3.2 mph 90 % 0.0 in
06:15 10.7 °F 9.3 °F 1014.4 in Calm   4.8 mph 91 % 0.0 in
06:30 10.7 °F 9.3 °F 1014.4 in Calm   4.8 mph 91 % 0.0 in
06:45 10.7 °F 9.3 °F 1014.8 in Calm   1.6 mph 91 % 0.0 in
07:00 10.7 °F 9.3 °F 1014.8 in Calm   4.8 mph 91 % 0.0 in
07:15 10.7 °F 9.3 °F 1014.8 in Calm   3.2 mph 91 % 0.0 in
07:30 10.7 °F 9.3 °F 1014.8 in NW 3.2 mph 8.0 mph 91 % 0.0 in
07:45 10.6 °F 9.2 °F 1014.4 in Calm   4.8 mph 91 % 0.0 in
08:00 10.7 °F 9.4 °F 1014.4 in NW 1.6 mph 6.4 mph 92 % 0.0 in
08:15 10.7 °F 9.5 °F 1014.4 in Calm   4.8 mph 92 % 0.0 in
08:30 10.6 °F 9.5 °F 1014.1 in NNW 1.6 mph 9.7 mph 93 % 0.0 in
08:45 10.5 °F 9.4 °F 1014.4 in NW 1.6 mph 11.3 mph 93 % 0.0 in
09:00 10.5 °F 9.6 °F 1014.1 in Calm   4.8 mph 94 % 0.0 in
09:15 10.5 °F 9.7 °F 1014.1 in NNW 1.6 mph 6.4 mph 95 % 0.0 in
09:30 10.6 °F 9.6 °F 1014.1 in Calm   1.6 mph 94 % 0.0 in
09:45 10.8 °F 9.9 °F 1014.1 in Calm   4.8 mph 94 % 0.0 in
10:00 11.3 °F 9.9 °F 1014.1 in Calm   3.2 mph 91 % 0.0 in
10:15 11.8 °F 10.0 °F 1014.1 in Calm   3.2 mph 89 % 0.0 in
10:30 12.4 °F 9.8 °F 1014.1 in NW 1.6 mph 9.7 mph 84 % 0.0 in
10:45 12.7 °F 9.9 °F 1014.1 in North 1.6 mph 4.8 mph 83 % 0.0 in
11:00 12.8 °F 9.4 °F 1014.1 in North 1.6 mph 9.7 mph 80 % 0.0 in
11:15 12.7 °F 9.7 °F 1014.1 in Calm   1.6 mph 82 % 0.0 in
11:30 12.6 °F 9.6 °F 1014.1 in Calm   4.8 mph 82 % 0.0 in
11:45 12.5 °F 9.3 °F 1014.1 in Calm   3.2 mph 81 % 0.0 in
12:00 12.6 °F 9.6 °F 1014.4 in Calm   3.2 mph 82 % 0.0 in
12:15 12.9 °F 9.8 °F 1014.1 in Calm   4.8 mph 81 % 0.0 in
12:30 12.6 °F 9.1 °F 1014.1 in NW 1.6 mph 8.0 mph 79 % 0.0 in
12:45 12.4 °F 9.2 °F 1014.1 in NW 4.8 mph 12.9 mph 81 % 0.0 in
13:00 12.3 °F 9.5 °F 1014.4 in NW 3.2 mph 11.3 mph 83 % 0.0 in
13:15 11.9 °F 9.3 °F 1014.4 in NW 3.2 mph 9.7 mph 84 % 0.0 in
13:30 12.2 °F 9.6 °F 1014.1 in NW 1.6 mph 8.0 mph 84 % 0.0 in
13:45 12.7 °F 9.5 °F 1014.1 in Calm   3.2 mph 81 % 0.0 in
14:00 13.2 °F 9.6 °F 1014.1 in Calm   4.8 mph 79 % 0.0 in
14:15 13.1 °F 9.7 °F 1014.1 in Calm   6.4 mph 80 % 0.0 in
14:30 12.5 °F 9.1 °F 1014.1 in Calm   4.8 mph 80 % 0.0 in
14:45 11.9 °F 9.0 °F 1014.1 in Calm   1.6 mph 82 % 0.0 in
15:00 11.9 °F 8.9 °F 1014.1 in Calm   4.8 mph 82 % 0.0 in
15:15 12.0 °F 9.0 °F 1014.1 in Calm   4.8 mph 82 % 0.0 in
15:30 12.2 °F 9.2 °F 1014.1 in Calm   4.8 mph 82 % 0.0 in
15:45 12.0 °F 9.0 °F 1014.1 in Calm   4.8 mph 82 % 0.0 in
16:00 12.1 °F 9.3 °F 1014.1 in Calm   3.2 mph 83 % 0.0 in
16:15 12.4 °F 9.3 °F 1013.8 in Calm   4.8 mph 81 % 0.0 in
16:30 12.3 °F 8.6 °F 1013.8 in NNW 1.6 mph 6.4 mph 78 % 0.0 in
16:45 12.3 °F 9.0 °F 1013.8 in Calm   4.8 mph 80 % 0.0 in
17:00 12.2 °F 8.8 °F 1013.8 in Calm   14.5 mph 80 % 0.0 in
17:15 12.3 °F 8.6 °F 1013.8 in Calm   9.7 mph 78 % 0.0 in
17:30 12.3 °F 8.6 °F 1013.8 in Calm   6.4 mph 78 % 0.0 in
17:45 12.3 °F 8.7 °F 1013.8 in NW 1.6 mph 9.7 mph 79 % 0.0 in
18:00 12.1 °F 8.1 °F 1013.8 in North 1.6 mph 9.7 mph 77 % 0.0 in
18:15 11.8 °F 8.5 °F 1013.8 in NW 1.6 mph 8.0 mph 80 % 0.0 in
18:30 11.7 °F 8.6 °F 1013.8 in Calm   3.2 mph 81 % 0.0 in
18:45 11.7 °F 8.5 °F 1013.8 in Calm   1.6 mph 81 % 0.0 in
19:00 11.5 °F 8.4 °F 1013.8 in Calm   4.8 mph 81 % 0.0 in
19:15 11.3 °F 8.2 °F 1013.4 in Calm   3.2 mph 81 % 0.0 in
19:30 11.2 °F 8.2 °F 1013.4 in Calm   3.2 mph 82 % 0.0 in
19:45 11.1 °F 8.3 °F 1013.8 in Calm     83 % 0.0 in
20:30 10.6 °F 8.4 °F 1013.8 in Calm     86 % 0.0 in
20:45 10.5 °F 8.4 °F 1013.8 in Calm     87 % 0.0 in
21:00 10.4 °F 8.3 °F 1013.4 in Calm   1.6 mph 87 % 0.0 in
21:15 10.2 °F 8.3 °F 1013.8 in Calm     88 % 0.0 in
21:30 10.1 °F 8.2 °F 1013.8 in Calm     88 % 0.0 in
21:45 9.9 °F 8.0 °F 1013.4 in Calm     88 % 0.0 in
22:00 9.9 °F 8.0 °F 1013.4 in Calm     88 % 0.0 in
22:15 9.8 °F 7.9 °F 1013.1 in Calm     88 % 0.0 in
22:30 9.7 °F 7.8 °F 1013.1 in Calm   1.6 mph 88 % 0.0 in
22:45 9.7 °F 7.6 °F 1013.1 in Calm     87 % 0.0 in
23:00 9.6 °F 7.6 °F 1013.1 in Calm     87 % 0.0 in
23:30 9.5 °F 7.8 °F 1012.8 in Calm   4.8 mph 89 % 0.0 in
23:45 9.4 °F 7.9 °F 1012.8 in Calm   1.6 mph 90 % 0.0 in
Esan sääasema
Terveisin Weather Underground - 2.75 mb

Alkuperäinen skripti  Jim McMurry - jmcmurry@mwt.net Sovitettu myös templatelle  Wim van der Kuil - Leuven-Template.eu

Laitteet joita käytämme:

Sääasema
Davis VP2

Sääasemaohjelma
Cumulus

Sääaseman tietokone
Asus EeePC

Palveluntarjoaja
Suncomet

Davis VP2

Cumulus

Asus EeePC

Suncomet